createdAt,value
2018-12-06T00:00:12.189Z,92.60
2018-12-06T00:03:19.688Z,93.00
2018-12-06T00:06:27.185Z,92.80
2018-12-06T00:09:34.677Z,92.80
2018-12-06T00:12:42.156Z,92.70
2018-12-06T00:16:00.072Z,92.80
2018-12-06T00:19:10.444Z,93.20
2018-12-06T00:22:17.960Z,93.20
2018-12-06T00:25:25.927Z,93.40
2018-12-06T00:28:43.449Z,93.60
2018-12-06T00:32:00.925Z,94.30
2018-12-06T00:35:18.342Z,94.10
2018-12-06T00:38:35.741Z,94.30
2018-12-06T00:41:53.205Z,94.70
2018-12-06T00:45:02.950Z,94.50
2018-12-06T00:48:10.717Z,94.60
2018-12-06T00:51:28.392Z,94.40
2018-12-06T00:54:45.646Z,94.30
2018-12-06T00:58:03.552Z,94.30
2018-12-06T01:01:11.877Z,94.50
2018-12-06T01:04:29.389Z,94.40
2018-12-06T01:07:46.800Z,94.40
2018-12-06T01:11:04.269Z,94.40
2018-12-06T01:14:23.775Z,94.30
2018-12-06T01:17:31.473Z,94.30
2018-12-06T01:20:38.928Z,94.30
2018-12-06T01:23:46.432Z,94.10
2018-12-06T01:27:06.941Z,94.60
2018-12-06T01:30:24.533Z,94.10
2018-12-06T01:33:41.989Z,94.30
2018-12-06T01:36:59.424Z,94.50
2018-12-06T01:40:16.896Z,94.50
2018-12-06T01:43:34.399Z,94.30
2018-12-06T01:46:42.097Z,94.20
2018-12-06T01:49:49.555Z,94.40
2018-12-06T01:52:57.046Z,94.40
2018-12-06T01:56:04.509Z,94.50
2018-12-06T01:59:12.005Z,94.40
2018-12-06T02:02:29.427Z,94.30
2018-12-06T02:05:46.799Z,94.50
2018-12-06T02:09:06.532Z,94.40
2018-12-06T02:12:14.664Z,94.40
2018-12-06T02:15:32.151Z,94.40
2018-12-06T02:18:49.623Z,94.70
2018-12-06T02:22:07.717Z,94.90
2018-12-06T02:28:30.924Z,95.10
2018-12-06T02:31:48.847Z,95.40
2018-12-06T02:35:07.188Z,95.40
2018-12-06T02:38:14.725Z,95.50
2018-12-06T02:41:22.410Z,95.60
2018-12-06T02:44:30.354Z,95.60
2018-12-06T02:47:38.333Z,95.70
2018-12-06T02:50:55.795Z,96.00
2018-12-06T02:54:13.186Z,96.00
2018-12-06T02:57:30.569Z,96.00
2018-12-06T03:00:48.069Z,96.30
2018-12-06T03:03:55.797Z,96.30
2018-12-06T03:07:03.264Z,96.60
2018-12-06T03:10:10.766Z,96.50
2018-12-06T03:13:18.221Z,96.70
2018-12-06T03:16:25.709Z,96.70
2018-12-06T03:19:33.720Z,96.80
2018-12-06T03:22:41.197Z,96.60
2018-12-06T03:25:48.778Z,96.60
2018-12-06T03:29:06.294Z,96.70
2018-12-06T03:32:23.693Z,96.70
2018-12-06T03:35:41.093Z,96.70
2018-12-06T03:38:58.532Z,96.70
2018-12-06T03:42:16.995Z,96.70
2018-12-06T03:45:34.917Z,96.50
2018-12-06T03:48:52.381Z,96.40
2018-12-06T03:52:09.782Z,96.20
2018-12-06T03:55:27.217Z,96.70
2018-12-06T03:58:44.657Z,96.90
2018-12-06T04:02:02.076Z,97.10
2018-12-06T04:05:19.557Z,97.50
2018-12-06T04:08:36.933Z,97.40
2018-12-06T04:11:54.533Z,97.80
2018-12-06T04:15:11.847Z,97.30
2018-12-06T04:18:29.240Z,97.20
2018-12-06T04:21:37.040Z,97.30
2018-12-06T04:24:44.546Z,97.40
2018-12-06T04:27:52.033Z,97.40
2018-12-06T04:34:15.238Z,97.60
2018-12-06T04:37:32.707Z,97.80
2018-12-06T04:40:40.481Z,97.60
2018-12-06T04:43:48.080Z,97.70
2018-12-06T04:46:55.680Z,97.40
2018-12-06T04:50:13.279Z,97.50
2018-12-06T04:53:30.716Z,97.40
2018-12-06T04:56:48.170Z,97.50
2018-12-06T05:00:06.409Z,97.30
2018-12-06T05:03:13.905Z,97.30
2018-12-06T05:06:22.044Z,97.20
2018-12-06T05:09:29.604Z,97.30
2018-12-06T05:12:37.224Z,97.50
2018-12-06T05:15:44.710Z,97.50
2018-12-06T05:19:02.088Z,97.30
2018-12-06T05:22:19.545Z,97.50
2018-12-06T05:25:36.969Z,97.50
2018-12-06T05:28:54.395Z,97.40
2018-12-06T05:32:11.854Z,97.30
2018-12-06T05:35:29.235Z,97.50
2018-12-06T05:38:46.745Z,97.70
2018-12-06T05:42:04.161Z,97.30
2018-12-06T05:45:21.575Z,97.20
2018-12-06T05:48:38.950Z,97.20
2018-12-06T05:51:56.525Z,97.00
2018-12-06T05:55:13.836Z,97.40
2018-12-06T05:58:31.247Z,97.20
2018-12-06T06:01:48.763Z,97.10
2018-12-06T06:05:08.116Z,97.20
2018-12-06T06:08:16.340Z,96.90
2018-12-06T06:11:23.857Z,97.10
2018-12-06T06:14:41.190Z,97.00
2018-12-06T06:17:58.701Z,96.70
2018-12-06T06:21:16.157Z,97.10
2018-12-06T06:24:33.584Z,97.00
2018-12-06T06:27:51.049Z,96.90
2018-12-06T06:31:08.460Z,97.00
2018-12-06T06:34:25.936Z,96.90
2018-12-06T06:37:43.269Z,97.00
2018-12-06T06:41:00.737Z,97.10
2018-12-06T06:44:18.179Z,97.10
2018-12-06T06:47:35.637Z,96.90
2018-12-06T06:50:53.697Z,96.80
2018-12-06T06:54:01.217Z,96.70
2018-12-06T06:57:08.685Z,96.70
2018-12-06T07:00:16.215Z,96.60
2018-12-06T07:03:23.769Z,96.50
2018-12-06T07:06:41.381Z,96.50
2018-12-06T07:09:59.361Z,96.60
2018-12-06T07:13:07.351Z,96.80
2018-12-06T07:16:14.973Z,96.60
2018-12-06T07:19:22.453Z,96.40
2018-12-06T07:25:46.895Z,96.30
2018-12-06T07:29:04.559Z,96.40
2018-12-06T07:32:12.213Z,96.50
2018-12-06T07:35:19.725Z,96.80
2018-12-06T07:38:27.191Z,96.90
2018-12-06T07:44:50.400Z,97.10
2018-12-06T07:51:14.021Z,96.90
2018-12-06T07:54:31.321Z,97.20
2018-12-06T07:57:48.853Z,97.20
2018-12-06T08:01:06.282Z,97.00
2018-12-06T08:04:23.637Z,96.90
2018-12-06T08:07:43.143Z,97.10
2018-12-06T08:11:01.042Z,97.30
2018-12-06T08:14:08.519Z,97.20
2018-12-06T08:20:31.697Z,97.40
2018-12-06T08:23:49.101Z,97.50
2018-12-06T08:27:06.680Z,97.60
2018-12-06T08:30:24.022Z,97.60
2018-12-06T08:33:41.470Z,97.80
2018-12-06T08:36:58.932Z,97.70
2018-12-06T08:40:16.429Z,98.30
2018-12-06T08:43:35.005Z,98.00
2018-12-06T08:49:58.283Z,97.70
2018-12-06T08:53:15.706Z,97.70
2018-12-06T08:56:33.130Z,97.70
2018-12-06T08:59:50.606Z,97.70
2018-12-06T09:03:08.476Z,97.60
2018-12-06T09:06:25.925Z,97.60
2018-12-06T09:09:33.749Z,97.40
2018-12-06T09:15:57.004Z,97.30
2018-12-06T09:19:14.813Z,97.10
2018-12-06T09:22:24.411Z,97.10
2018-12-06T09:25:42.281Z,97.00
2018-12-06T09:28:59.709Z,97.00
2018-12-06T09:32:17.344Z,97.00
2018-12-06T09:35:24.849Z,97.30
2018-12-06T09:41:48.826Z,97.10
2018-12-06T09:45:08.520Z,97.30
2018-12-06T09:51:32.397Z,97.00
2018-12-06T09:54:39.893Z,97.00
2018-12-06T10:01:03.589Z,97.40
2018-12-06T10:04:21.061Z,97.50
2018-12-06T10:07:38.488Z,97.40
2018-12-06T10:10:56.529Z,97.20
2018-12-06T10:14:13.920Z,97.20
2018-12-06T10:17:31.772Z,97.10
2018-12-06T10:20:39.376Z,97.10
2018-12-06T10:27:02.650Z,97.20
2018-12-06T10:30:20.649Z,97.40
2018-12-06T10:33:28.156Z,97.40
2018-12-06T10:36:35.868Z,97.30
2018-12-06T10:39:43.373Z,97.30
2018-12-06T10:43:00.741Z,97.10
2018-12-06T10:46:21.476Z,97.30
2018-12-06T10:49:28.971Z,97.60
2018-12-06T10:55:52.207Z,97.70
2018-12-06T10:59:09.732Z,98.00
2018-12-06T11:02:30.800Z,97.90
2018-12-06T11:05:38.741Z,97.90
2018-12-06T11:12:02.269Z,97.70
2018-12-06T11:15:10.805Z,97.70
2018-12-06T11:18:30.377Z,97.60
2018-12-06T11:21:48.481Z,97.50
2018-12-06T11:24:56.285Z,97.60
2018-12-06T11:31:19.733Z,97.40
2018-12-06T11:34:37.178Z,97.40
2018-12-06T11:37:54.737Z,97.40
2018-12-06T11:41:02.561Z,97.40
2018-12-06T11:47:26.231Z,97.60
2018-12-06T11:50:33.928Z,97.60
2018-12-06T11:53:41.904Z,97.50
2018-12-06T11:56:59.685Z,97.40
2018-12-06T12:00:08.740Z,97.40
2018-12-06T12:03:16.448Z,97.40
2018-12-06T12:06:24.072Z,97.50
2018-12-06T12:09:42.277Z,97.50
2018-12-06T12:12:50.247Z,97.70
2018-12-06T12:16:08.024Z,97.70
2018-12-06T12:22:33.082Z,97.60
2018-12-06T12:25:50.699Z,97.80
2018-12-06T12:29:08.279Z,98.00
2018-12-06T12:32:16.083Z,98.00
2018-12-06T12:35:23.896Z,98.00
2018-12-06T12:38:41.845Z,98.00
2018-12-06T12:41:49.644Z,98.10
2018-12-06T12:44:57.221Z,98.20
2018-12-06T12:51:21.020Z,98.30
2018-12-06T12:57:44.622Z,98.40
2018-12-06T13:00:52.587Z,98.40
2018-12-06T13:07:16.542Z,98.60
2018-12-06T13:10:24.199Z,98.60
2018-12-06T13:13:32.004Z,98.60
2018-12-06T13:16:40.073Z,98.60
2018-12-06T13:19:48.149Z,98.60
2018-12-06T13:26:13.925Z,98.50
2018-12-06T13:32:39.087Z,98.50
2018-12-06T13:35:46.834Z,98.70
2018-12-06T13:42:10.237Z,98.70
2018-12-06T13:45:18.539Z,98.60
2018-12-06T13:51:42.223Z,98.60
2018-12-06T13:54:49.834Z,98.60
2018-12-06T14:01:13.561Z,98.60
2018-12-06T14:07:37.728Z,98.40
2018-12-06T14:10:45.350Z,98.50
2018-12-06T14:17:08.944Z,98.60
2018-12-06T14:20:16.706Z,98.60
2018-12-06T14:23:24.385Z,98.60
2018-12-06T14:26:32.014Z,98.60
2018-12-06T14:32:55.915Z,98.80
2018-12-06T14:36:13.818Z,98.70
2018-12-06T14:42:37.665Z,98.90
2018-12-06T14:45:46.018Z,98.90
2018-12-06T14:49:03.689Z,98.90
2018-12-06T14:52:11.405Z,98.90
2018-12-06T14:55:18.974Z,99.00
2018-12-06T15:01:42.505Z,99.00
2018-12-06T15:08:06.370Z,99.00
2018-12-06T15:11:14.205Z,98.90
2018-12-06T15:17:37.730Z,99.00
2018-12-06T15:20:45.545Z,99.20
2018-12-06T15:27:08.898Z,99.60
2018-12-06T15:30:26.538Z,99.20
2018-12-06T15:33:34.204Z,99.20
2018-12-06T15:36:41.719Z,99.20
2018-12-06T15:43:05.339Z,99.20
2018-12-06T15:46:12.832Z,99.20
2018-12-06T15:52:36.257Z,99.50
2018-12-06T15:55:53.729Z,99.30
2018-12-06T15:59:11.184Z,99.60
2018-12-06T16:02:28.763Z,99.30
2018-12-06T16:05:36.276Z,99.60
2018-12-06T16:11:59.540Z,99.30
2018-12-06T16:15:17.925Z,99.30
2018-12-06T16:21:41.761Z,99.30
2018-12-06T16:28:05.625Z,99.30
2018-12-06T16:31:13.314Z,99.20
2018-12-06T16:37:36.541Z,99.10
2018-12-06T16:40:54.114Z,99.10
2018-12-06T16:47:17.429Z,99.10
2018-12-06T16:50:34.989Z,99.10
2018-12-06T16:53:42.593Z,99.10
2018-12-06T16:56:50.329Z,99.10
2018-12-06T17:03:13.817Z,99.00
2018-12-06T17:06:34.938Z,99.00
2018-12-06T17:13:00.112Z,98.80
2018-12-06T17:16:08.118Z,98.90
2018-12-06T17:22:32.145Z,98.90
2018-12-06T17:25:39.810Z,98.90
2018-12-06T17:32:03.131Z,99.00
2018-12-06T17:35:20.584Z,99.00
2018-12-06T17:38:38.059Z,98.80
2018-12-06T17:41:55.598Z,98.70
2018-12-06T17:48:18.976Z,98.70
2018-12-06T17:51:36.469Z,98.60
2018-12-06T17:57:59.809Z,98.80
2018-12-06T18:01:17.476Z,98.80
2018-12-06T18:07:41.126Z,98.80
2018-12-06T18:10:49.059Z,98.70
2018-12-06T18:17:12.466Z,98.80
2018-12-06T18:20:20.120Z,98.70
2018-12-06T18:23:27.639Z,98.70
2018-12-06T18:26:35.189Z,98.70
2018-12-06T18:32:58.550Z,98.70
2018-12-06T18:36:06.337Z,98.80
2018-12-06T18:42:30.104Z,98.70
2018-12-06T18:48:53.321Z,98.90
2018-12-06T18:52:11.568Z,98.90
2018-12-06T18:58:36.893Z,98.60
2018-12-06T19:01:45.058Z,99.00
2018-12-06T19:05:02.649Z,98.70
2018-12-06T19:08:20.606Z,98.80
2018-12-06T19:11:38.964Z,98.60
2018-12-06T19:18:04.281Z,98.40
2018-12-06T19:21:12.103Z,98.40
2018-12-06T19:27:35.441Z,98.40
2018-12-06T19:30:52.806Z,98.40
2018-12-06T19:34:10.777Z,98.40
2018-12-06T19:37:28.259Z,98.40
2018-12-06T19:40:46.165Z,98.40
2018-12-06T19:44:03.658Z,98.50
2018-12-06T19:47:21.104Z,98.40
2018-12-06T19:50:38.488Z,98.20
2018-12-06T19:53:55.954Z,97.90
2018-12-06T19:57:13.464Z,97.80
2018-12-06T20:00:30.930Z,97.60
2018-12-06T20:03:49.080Z,97.60
2018-12-06T20:07:06.760Z,97.60
2018-12-06T20:10:24.203Z,97.40
2018-12-06T20:13:31.941Z,97.60
2018-12-06T20:16:39.429Z,97.40
2018-12-06T20:23:03.571Z,97.40
2018-12-06T20:26:21.064Z,98.00
2018-12-06T20:32:44.724Z,97.90
2018-12-06T20:39:08.706Z,98.00
2018-12-06T20:42:16.323Z,98.00
2018-12-06T20:48:40.624Z,98.10
2018-12-06T20:51:58.284Z,98.20
2018-12-06T20:58:26.398Z,98.40
2018-12-06T21:01:43.939Z,98.30
2018-12-06T21:08:07.287Z,98.30
2018-12-06T21:11:24.783Z,98.40
2018-12-06T21:14:42.300Z,98.40
2018-12-06T21:18:00.382Z,98.70
2018-12-06T21:21:07.920Z,98.60
2018-12-06T21:27:31.232Z,98.60
2018-12-06T21:30:49.637Z,98.80
2018-12-06T21:33:57.292Z,99.00
2018-12-06T21:37:14.917Z,98.70
2018-12-06T21:40:32.865Z,98.80
2018-12-06T21:43:40.404Z,98.80
2018-12-06T21:46:47.943Z,98.90
2018-12-06T21:53:12.179Z,99.10
2018-12-06T21:56:31.586Z,99.20
2018-12-06T21:59:49.126Z,99.20
2018-12-06T22:02:56.654Z,99.10
2018-12-06T22:09:20.853Z,99.40
2018-12-06T22:12:38.417Z,99.50
2018-12-06T22:15:55.782Z,99.50
2018-12-06T22:19:13.799Z,99.60
2018-12-06T22:22:21.761Z,99.60
2018-12-06T22:28:45.169Z,99.90
2018-12-06T22:32:02.717Z,99.90
2018-12-06T22:38:26.102Z,99.90
2018-12-06T22:41:43.576Z,99.90
2018-12-06T22:46:15.371Z,99.90
2018-12-06T22:52:39.371Z,99.90
2018-12-06T22:59:03.746Z,99.90
2018-12-06T23:02:11.604Z,99.90
2018-12-06T23:08:34.848Z,99.90
2018-12-06T23:11:52.436Z,99.90
2018-12-06T23:18:17.074Z,99.90
2018-12-06T23:21:24.713Z,99.90
2018-12-06T23:24:42.176Z,99.90
2018-12-06T23:27:59.719Z,99.90
2018-12-06T23:31:08.304Z,99.90
2018-12-06T23:34:26.420Z,99.90
2018-12-06T23:37:34.064Z,99.90
2018-12-06T23:43:57.364Z,99.90
2018-12-06T23:47:14.809Z,99.90
2018-12-06T23:50:32.718Z,99.90
2018-12-06T23:53:40.368Z,99.90
2018-12-06T23:56:48.125Z,99.90
